createdAt,value
2016-06-03T00:00:01.857Z,17.8
2016-06-03T00:00:11.701Z,17.8
2016-06-03T00:00:21.841Z,17.8
2016-06-03T00:00:31.826Z,17.8
2016-06-03T00:00:41.810Z,17.9
2016-06-03T00:00:51.812Z,17.8
2016-06-03T00:01:01.796Z,17.9
2016-06-03T00:01:11.781Z,18
2016-06-03T00:01:21.765Z,17.9
2016-06-03T00:01:31.765Z,17.9
2016-06-03T00:01:41.749Z,17.8
2016-06-03T00:01:51.737Z,17.9
2016-06-03T00:02:01.737Z,17.8
2016-06-03T00:02:11.721Z,17.8
2016-06-03T00:02:21.549Z,17.8
2016-06-03T00:02:31.690Z,17.8
2016-06-03T00:02:41.674Z,17.8
2016-06-03T00:02:51.662Z,17.8
2016-06-03T00:03:01.662Z,17.8
2016-06-03T00:03:11.646Z,17.8
2016-06-03T00:03:21.630Z,17.8
2016-06-03T00:03:31.630Z,17.8
2016-06-03T00:03:41.599Z,17.8
2016-06-03T00:03:51.601Z,17.8
2016-06-03T00:04:01.586Z,17.8
2016-06-03T00:04:11.570Z,17.8
2016-06-03T00:04:21.554Z,17.8
2016-06-03T00:04:31.554Z,17.8
2016-06-03T00:04:41.539Z,17.9
2016-06-03T00:04:51.525Z,17.8
2016-06-03T00:05:01.541Z,17.8
2016-06-03T00:05:11.494Z,17.8
2016-06-03T00:05:21.338Z,17.8
2016-06-03T00:05:31.478Z,17.8
2016-06-03T00:05:41.478Z,17.8
2016-06-03T00:05:51.466Z,17.8
2016-06-03T00:06:01.450Z,17.9
2016-06-03T00:06:11.434Z,18
2016-06-03T00:06:21.419Z,17.8
2016-06-03T00:06:31.419Z,17.8
2016-06-03T00:06:41.403Z,17.8
2016-06-03T00:06:51.390Z,17.8
2016-06-03T00:07:01.375Z,17.8
2016-06-03T00:07:11.359Z,17.8
2016-06-03T00:07:21.359Z,17.8
2016-06-03T00:07:31.344Z,17.8
2016-06-03T00:07:41.328Z,17.8
2016-06-03T00:07:51.315Z,17.8
2016-06-03T00:08:01.315Z,17.8
2016-06-03T00:08:11.300Z,17.8
2016-06-03T00:08:21.284Z,17.8
2016-06-03T00:08:31.268Z,17.8
2016-06-03T00:08:41.253Z,17.8
2016-06-03T00:08:51.255Z,17.8
2016-06-03T00:09:01.239Z,17.8
2016-06-03T00:09:11.239Z,17.8
2016-06-03T00:09:21.208Z,17.8
2016-06-03T00:09:31.192Z,17.8
2016-06-03T00:09:41.036Z,17.8
2016-06-03T00:09:51.180Z,17.8
2016-06-03T00:10:01.164Z,17.8
2016-06-03T00:10:11.148Z,17.8
2016-06-03T00:10:20.992Z,17.8
2016-06-03T00:10:31.133Z,17.8
2016-06-03T00:10:41.664Z,17.8
2016-06-03T00:10:51.400Z,17.8
2016-06-03T00:11:01.104Z,17.9
2016-06-03T00:11:11.088Z,17.8
2016-06-03T00:11:21.072Z,17.8
2016-06-03T00:11:31.057Z,17.9
2016-06-03T00:11:41.041Z,17.8
2016-06-03T00:11:51.045Z,17.8
2016-06-03T00:12:01.029Z,17.8
2016-06-03T00:12:11.014Z,17.8
2016-06-03T00:12:21.014Z,17.8
2016-06-03T00:12:30.998Z,17.8
2016-06-03T00:12:40.826Z,17.8
2016-06-03T00:12:50.969Z,17.9
2016-06-03T00:13:00.953Z,17.9
2016-06-03T00:13:10.953Z,17.8
2016-06-03T00:13:20.938Z,17.8
2016-06-03T00:13:30.922Z,17.8
2016-06-03T00:13:40.906Z,17.8
2016-06-03T00:13:50.909Z,17.8
2016-06-03T00:14:00.894Z,17.8
2016-06-03T00:14:10.894Z,17.9
2016-06-03T00:14:20.863Z,17.9
2016-06-03T00:14:30.863Z,17.8
2016-06-03T00:14:40.847Z,17.8
2016-06-03T00:14:50.834Z,17.9
2016-06-03T00:15:00.819Z,17.8
2016-06-03T00:15:10.819Z,17.8
2016-06-03T00:15:20.803Z,17.9
2016-06-03T00:15:30.787Z,17.8
2016-06-03T00:15:40.772Z,17.9
2016-06-03T00:15:50.758Z,17.8
2016-06-03T00:16:00.758Z,17.9
2016-06-03T00:16:10.743Z,17.8
2016-06-03T00:16:20.727Z,17.8
2016-06-03T00:16:30.711Z,17.8
2016-06-03T00:16:40.727Z,17.9
2016-06-03T00:16:50.699Z,17.8
2016-06-03T00:17:00.683Z,17.8
2016-06-03T00:17:10.667Z,17.8
2016-06-03T00:17:20.652Z,17.8
2016-06-03T00:17:30.652Z,17.8
2016-06-03T00:17:40.636Z,17.8
2016-06-03T00:17:50.624Z,17.9
2016-06-03T00:18:00.608Z,17.8
2016-06-03T00:18:10.608Z,17.8
2016-06-03T00:18:20.592Z,17.8
2016-06-03T00:18:30.577Z,17.8
2016-06-03T00:18:40.561Z,17.8
2016-06-03T00:18:50.548Z,17.9
2016-06-03T00:19:00.548Z,17.9
2016-06-03T00:19:10.533Z,17.8
2016-06-03T00:19:20.517Z,17.8
2016-06-03T00:19:30.517Z,17.9
2016-06-03T00:19:40.502Z,17.9
2016-06-03T00:19:50.489Z,17.9
2016-06-03T00:20:00.473Z,18
2016-06-03T00:20:10.458Z,17.8
2016-06-03T00:20:20.442Z,17.9
2016-06-03T00:20:30.442Z,17.9
2016-06-03T00:20:40.426Z,17.9
2016-06-03T00:20:50.256Z,17.9
2016-06-03T00:21:00.412Z,17.9
2016-06-03T00:21:10.396Z,17.9
2016-06-03T00:21:20.224Z,17.8
2016-06-03T00:21:30.365Z,17.9
2016-06-03T00:21:40.365Z,17.9
2016-06-03T00:21:50.353Z,17.9
2016-06-03T00:22:00.338Z,17.9
2016-06-03T00:22:10.322Z,18
2016-06-03T00:22:20.306Z,18
2016-06-03T00:22:30.306Z,17.9
2016-06-03T00:22:40.291Z,18
2016-06-03T00:22:50.277Z,17.9
2016-06-03T00:23:00.277Z,17.9
2016-06-03T00:23:10.262Z,17.9
2016-06-03T00:23:20.246Z,17.9
2016-06-03T00:23:30.230Z,17.9
2016-06-03T00:23:40.215Z,17.9
2016-06-03T00:23:50.218Z,17.9
2016-06-03T00:24:00.202Z,17.9
2016-06-03T00:24:10.186Z,17.9
2016-06-03T00:24:20.171Z,18
2016-06-03T00:24:30.171Z,18
2016-06-03T00:24:40.718Z,18
2016-06-03T00:24:50.376Z,18
2016-06-03T00:25:00.126Z,18
2016-06-03T00:25:11.423Z,18
2016-06-03T00:25:20.126Z,18
2016-06-03T00:25:29.938Z,18
2016-06-03T00:25:40.079Z,18
2016-06-03T00:25:50.082Z,18
2016-06-03T00:26:00.051Z,18
2016-06-03T00:26:10.051Z,18
2016-06-03T00:26:20.035Z,18
2016-06-03T00:26:30.020Z,18
2016-06-03T00:26:40.020Z,18
2016-06-03T00:26:50.007Z,18
2016-06-03T00:26:59.991Z,18
2016-06-03T00:27:09.976Z,18
2016-06-03T00:27:19.960Z,18
2016-06-03T00:27:29.944Z,18
2016-06-03T00:27:39.944Z,17.9
2016-06-03T00:27:49.931Z,18.1
2016-06-03T00:27:59.915Z,18
2016-06-03T00:28:09.915Z,18
2016-06-03T00:28:19.743Z,18
2016-06-03T00:28:29.900Z,18
2016-06-03T00:28:39.868Z,18
2016-06-03T00:28:49.700Z,18
2016-06-03T00:28:59.841Z,18
2016-06-03T00:29:09.841Z,18
2016-06-03T00:29:19.825Z,18
2016-06-03T00:29:29.810Z,18
2016-06-03T00:29:39.794Z,18
2016-06-03T00:29:49.796Z,18
2016-06-03T00:29:59.796Z,18.1
2016-06-03T00:30:09.765Z,18
2016-06-03T00:30:19.765Z,18
2016-06-03T00:30:29.749Z,18
2016-06-03T00:30:39.734Z,18.1
2016-06-03T00:30:49.736Z,18.1
2016-06-03T00:31:01.689Z,18
2016-06-03T00:31:09.704Z,18
2016-06-03T00:31:19.689Z,18
2016-06-03T00:31:29.673Z,18
2016-06-03T00:31:39.658Z,18
2016-06-03T00:31:49.662Z,18.1
2016-06-03T00:31:59.490Z,18.1
2016-06-03T00:32:09.630Z,18
2016-06-03T00:32:19.615Z,18.1
2016-06-03T00:32:29.615Z,18.1
2016-06-03T00:32:39.599Z,18.1
2016-06-03T00:32:49.585Z,18
2016-06-03T00:32:59.585Z,18
2016-06-03T00:33:09.554Z,18.1
2016-06-03T00:33:19.554Z,18.1
2016-06-03T00:33:29.539Z,18.1
2016-06-03T00:33:39.523Z,18.1
2016-06-03T00:33:49.510Z,18.1
2016-06-03T00:33:59.495Z,18.1
2016-06-03T00:34:09.495Z,18.1
2016-06-03T00:34:19.323Z,18.1
2016-06-03T00:34:29.463Z,18.1
2016-06-03T00:34:39.448Z,18.1
2016-06-03T00:34:49.450Z,18.1
2016-06-03T00:34:59.434Z,18.1
2016-06-03T00:35:09.419Z,18.1
2016-06-03T00:35:19.403Z,18.1
2016-06-03T00:35:29.403Z,18.2
2016-06-03T00:35:39.387Z,18.2
2016-06-03T00:35:49.375Z,18.2
2016-06-03T00:35:59.359Z,18.2
2016-06-03T00:36:09.359Z,18.2
2016-06-03T00:36:19.343Z,18.2
2016-06-03T00:36:29.328Z,18.2
2016-06-03T00:36:39.328Z,18.2
2016-06-03T00:36:49.300Z,18.2
2016-06-03T00:36:59.300Z,18.2
2016-06-03T00:37:09.128Z,18.1
2016-06-03T00:37:19.268Z,18.1
2016-06-03T00:37:29.268Z,18.2
2016-06-03T00:37:39.253Z,18.1
2016-06-03T00:37:49.239Z,18.1
2016-06-03T00:37:59.239Z,18.2
2016-06-03T00:38:09.208Z,18.2
2016-06-03T00:38:19.052Z,18.1
2016-06-03T00:38:29.192Z,18.2
2016-06-03T00:38:39.177Z,18.2
2016-06-03T00:38:49.164Z,18.3
2016-06-03T00:38:59.008Z,18.2
2016-06-03T00:39:09.148Z,18.2
2016-06-03T00:39:19.133Z,18.2
2016-06-03T00:39:29.117Z,18.2
2016-06-03T00:39:39.101Z,18.2
2016-06-03T00:39:49.104Z,18.2
2016-06-03T00:39:59.183Z,18.2
2016-06-03T00:40:09.839Z,18.2
2016-06-03T00:40:18.917Z,18.2
2016-06-03T00:40:29.089Z,18.2
2016-06-03T00:40:39.479Z,18.2
2016-06-03T00:40:49.139Z,18.2
2016-06-03T00:40:59.014Z,18.2
2016-06-03T00:41:08.998Z,18.2
2016-06-03T00:41:18.998Z,18.2
2016-06-03T00:41:28.982Z,18.2
2016-06-03T00:41:38.967Z,18.2
2016-06-03T00:41:48.954Z,18.2
2016-06-03T00:41:58.954Z,18.2
2016-06-03T00:42:08.939Z,18.1
2016-06-03T00:42:18.923Z,18.1
2016-06-03T00:42:28.907Z,18.1
2016-06-03T00:42:38.907Z,18.1
2016-06-03T00:42:48.894Z,18.1
2016-06-03T00:42:58.878Z,18.1
2016-06-03T00:43:08.862Z,18.1
2016-06-03T00:43:18.862Z,18.1
2016-06-03T00:43:28.847Z,18
2016-06-03T00:43:38.831Z,18
2016-06-03T00:43:48.661Z,18.1
2016-06-03T00:43:58.802Z,18.1
2016-06-03T00:44:08.802Z,18.1
2016-06-03T00:44:18.786Z,18.1
2016-06-03T00:44:28.771Z,18.1
2016-06-03T00:44:38.771Z,18.1
2016-06-03T00:44:48.758Z,18.2
2016-06-03T00:44:58.742Z,18.1
2016-06-03T00:45:08.727Z,18.1
2016-06-03T00:45:18.727Z,18.1
2016-06-03T00:45:28.696Z,18.1
2016-06-03T00:45:38.696Z,18.2
2016-06-03T00:45:48.683Z,18.1
2016-06-03T00:45:58.667Z,18.1
2016-06-03T00:46:08.652Z,18.1
2016-06-03T00:46:18.652Z,18.1
2016-06-03T00:46:28.636Z,18.1
2016-06-03T00:46:38.620Z,18.1
2016-06-03T00:46:48.607Z,18.1
2016-06-03T00:46:58.591Z,18.1
2016-06-03T00:47:08.591Z,18.1
2016-06-03T00:47:18.576Z,18.1
2016-06-03T00:47:28.560Z,18.1
2016-06-03T00:47:38.544Z,18.2
2016-06-03T00:47:48.548Z,18.1
2016-06-03T00:47:58.533Z,18.1
2016-06-03T00:48:08.517Z,18.1
2016-06-03T00:48:18.517Z,18.1
2016-06-03T00:48:28.501Z,18.1
2016-06-03T00:48:38.486Z,18.1
2016-06-03T00:48:48.472Z,18.1
2016-06-03T00:48:58.457Z,18.1
2016-06-03T00:49:08.457Z,18
2016-06-03T00:49:18.441Z,18.1
2016-06-03T00:49:28.425Z,18.1
2016-06-03T00:49:38.410Z,18.1
2016-06-03T00:49:48.397Z,18.1
2016-06-03T00:49:58.397Z,18.1
2016-06-03T00:50:08.381Z,18.1
2016-06-03T00:50:18.366Z,18.1
2016-06-03T00:50:28.350Z,18.2
2016-06-03T00:50:38.350Z,18.1
2016-06-03T00:50:48.180Z,18.1
2016-06-03T00:50:58.337Z,18.1
2016-06-03T00:51:08.305Z,18.1
2016-06-03T00:51:18.290Z,18.1
2016-06-03T00:51:28.290Z,18.1
2016-06-03T00:51:38.274Z,18.2
2016-06-03T00:51:48.261Z,18.1
2016-06-03T00:51:58.261Z,18.1
2016-06-03T00:52:08.090Z,18.1
2016-06-03T00:52:18.230Z,18.1
2016-06-03T00:52:28.215Z,18.1
2016-06-03T00:52:38.199Z,18
2016-06-03T00:52:48.202Z,18.1
2016-06-03T00:52:58.186Z,18.1
2016-06-03T00:53:08.171Z,18.1
2016-06-03T00:53:18.171Z,18.1
2016-06-03T00:53:28.155Z,18.1
2016-06-03T00:53:38.139Z,18.1
2016-06-03T00:53:48.141Z,18.1
2016-06-03T00:53:58.110Z,18
2016-06-03T00:54:08.095Z,18.1
2016-06-03T00:54:18.095Z,18.1
2016-06-03T00:54:28.079Z,18.1
2016-06-03T00:54:38.079Z,18.1
2016-06-03T00:54:48.223Z,18.1
2016-06-03T00:54:57.894Z,18
2016-06-03T00:55:08.066Z,18.1
2016-06-03T00:55:18.019Z,18
2016-06-03T00:55:27.863Z,18
2016-06-03T00:55:38.004Z,18.1
2016-06-03T00:55:47.991Z,18
2016-06-03T00:55:57.976Z,18.1
2016-06-03T00:56:07.960Z,18.1
2016-06-03T00:56:17.960Z,18
2016-06-03T00:56:27.944Z,18.1
2016-06-03T00:56:37.929Z,18.1
2016-06-03T00:56:47.775Z,18.1
2016-06-03T00:56:57.900Z,18
2016-06-03T00:57:07.900Z,18
2016-06-03T00:57:17.885Z,18
2016-06-03T00:57:27.869Z,18
2016-06-03T00:57:37.869Z,18
2016-06-03T00:57:47.857Z,18
2016-06-03T00:57:57.841Z,18
2016-06-03T00:58:07.825Z,18
2016-06-03T00:58:17.810Z,17.9
2016-06-03T00:58:27.810Z,18
2016-06-03T00:58:37.794Z,18
2016-06-03T00:58:47.780Z,18
2016-06-03T00:58:57.780Z,18
2016-06-03T00:59:07.749Z,18
2016-06-03T00:59:17.749Z,18
2016-06-03T00:59:27.734Z,18
2016-06-03T00:59:37.718Z,18
2016-06-03T00:59:47.704Z,18
2016-06-03T00:59:57.736Z,17.9
2016-06-03T01:00:07.689Z,18
2016-06-03T01:00:17.689Z,18
2016-06-03T01:00:27.657Z,18
2016-06-03T01:00:37.657Z,18
2016-06-03T01:00:47.645Z,17.9
2016-06-03T01:00:57.629Z,18
2016-06-03T01:01:07.614Z,18
2016-06-03T01:01:17.614Z,18
2016-06-03T01:01:27.598Z,18
2016-06-03T01:01:37.426Z,18
2016-06-03T01:01:47.570Z,18
2016-06-03T01:01:57.570Z,18
2016-06-03T01:02:07.554Z,18
2016-06-03T01:02:17.538Z,18
2016-06-03T01:02:27.523Z,18
2016-06-03T01:02:37.507Z,18
2016-06-03T01:02:47.526Z,18
2016-06-03T01:02:57.495Z,18
2016-06-03T01:03:07.479Z,18
2016-06-03T01:03:17.463Z,18
2016-06-03T01:03:27.463Z,18
2016-06-03T01:03:37.448Z,18
2016-06-03T01:03:47.434Z,18
2016-06-03T01:03:57.418Z,18
2016-06-03T01:04:07.418Z,18.1
2016-06-03T01:04:17.403Z,17.9
2016-06-03T01:04:27.387Z,18
2016-06-03T01:04:37.372Z,18.1
2016-06-03T01:04:47.359Z,18
2016-06-03T01:04:57.359Z,18
2016-06-03T01:05:07.343Z,18
2016-06-03T01:05:17.328Z,18.1
2016-06-03T01:05:27.312Z,18.1
2016-06-03T01:05:37.296Z,18.1
2016-06-03T01:05:47.299Z,18.1
2016-06-03T01:05:57.284Z,18.1
2016-06-03T01:06:07.268Z,18.1
2016-06-03T01:06:17.253Z,18.1
2016-06-03T01:06:27.253Z,18.1
2016-06-03T01:06:37.237Z,18
2016-06-03T01:06:47.224Z,18
2016-06-03T01:06:57.209Z,18
2016-06-03T01:07:07.209Z,18
2016-06-03T01:07:17.193Z,18
2016-06-03T01:07:27.177Z,18
2016-06-03T01:07:37.162Z,18
2016-06-03T01:07:47.165Z,18
2016-06-03T01:07:57.149Z,18
2016-06-03T01:08:07.134Z,18
2016-06-03T01:08:17.118Z,18
2016-06-03T01:08:27.102Z,18
2016-06-03T01:08:37.087Z,18.1
2016-06-03T01:08:47.089Z,18
2016-06-03T01:08:57.073Z,18
2016-06-03T01:09:07.073Z,18
2016-06-03T01:09:17.042Z,18
2016-06-03T01:09:27.042Z,18
2016-06-03T01:09:36.886Z,18.1
2016-06-03T01:09:47.264Z,18
2016-06-03T01:09:57.607Z,18
2016-06-03T01:10:07.482Z,18
2016-06-03T01:10:17.545Z,18
2016-06-03T01:10:26.967Z,18
2016-06-03T01:10:37.373Z,18
2016-06-03T01:10:47.016Z,18
2016-06-03T01:10:56.953Z,18
2016-06-03T01:11:06.922Z,18
2016-06-03T01:11:16.906Z,18
2016-06-03T01:11:26.906Z,18
2016-06-03T01:11:36.891Z,18
2016-06-03T01:11:46.878Z,18
2016-06-03T01:11:56.862Z,18
2016-06-03T01:12:06.847Z,17.9
2016-06-03T01:12:16.847Z,18
2016-06-03T01:12:26.831Z,18
2016-06-03T01:12:36.815Z,18
2016-06-03T01:12:46.802Z,18
2016-06-03T01:12:56.802Z,18
2016-06-03T01:13:06.786Z,18
2016-06-03T01:13:16.771Z,18
2016-06-03T01:13:26.771Z,18
2016-06-03T01:13:36.755Z,18
2016-06-03T01:13:46.758Z,18
2016-06-03T01:13:56.727Z,18
2016-06-03T01:14:06.711Z,18
2016-06-03T01:14:16.711Z,18
2016-06-03T01:14:26.539Z,18
2016-06-03T01:14:36.680Z,18
2016-06-03T01:14:46.667Z,18
2016-06-03T01:14:56.652Z,18
2016-06-03T01:15:06.652Z,18
2016-06-03T01:15:16.480Z,17.9
2016-06-03T01:15:26.620Z,18
2016-06-03T01:15:36.605Z,18
2016-06-03T01:15:46.592Z,18
2016-06-03T01:15:56.592Z,18
2016-06-03T01:16:06.592Z,18
2016-06-03T01:16:16.420Z,18
2016-06-03T01:16:26.545Z,18
2016-06-03T01:16:36.389Z,18
2016-06-03T01:16:46.532Z,18
2016-06-03T01:16:56.516Z,18
2016-06-03T01:17:06.500Z,18.1
2016-06-03T01:17:16.500Z,18
2016-06-03T01:17:26.485Z,18
2016-06-03T01:17:36.469Z,18
2016-06-03T01:17:46.456Z,18
2016-06-03T01:17:56.456Z,18
2016-06-03T01:18:06.441Z,18
2016-06-03T01:18:16.425Z,18
2016-06-03T01:18:26.410Z,18
2016-06-03T01:18:36.410Z,17.9
2016-06-03T01:18:46.397Z,18
2016-06-03T01:18:56.381Z,18
2016-06-03T01:19:06.381Z,18
2016-06-03T01:19:16.366Z,18
2016-06-03T01:19:26.350Z,18
2016-06-03T01:19:36.334Z,18.1
2016-06-03T01:19:46.321Z,18.1
2016-06-03T01:19:56.305Z,18.1
2016-06-03T01:20:06.305Z,18.1
2016-06-03T01:20:16.290Z,18.1
2016-06-03T01:20:26.274Z,18.1
2016-06-03T01:20:36.258Z,18.1
2016-06-03T01:20:46.261Z,18
2016-06-03T01:20:56.246Z,18.1
2016-06-03T01:21:06.246Z,18.1
2016-06-03T01:21:16.214Z,18.1
2016-06-03T01:21:26.214Z,18.1
2016-06-03T01:21:36.199Z,18
2016-06-03T01:21:46.186Z,18.1
2016-06-03T01:21:56.186Z,18.1
2016-06-03T01:22:06.171Z,18
2016-06-03T01:22:16.139Z,18.1
2016-06-03T01:22:26.139Z,18
2016-06-03T01:22:36.124Z,18.1
2016-06-03T01:22:46.111Z,18
2016-06-03T01:22:56.111Z,18.1
2016-06-03T01:23:06.095Z,18.1
2016-06-03T01:23:16.095Z,18.1
2016-06-03T01:23:26.064Z,18.1
2016-06-03T01:23:36.049Z,18.1
2016-06-03T01:23:46.051Z,18.1
2016-06-03T01:23:56.035Z,18.1
2016-06-03T01:24:06.019Z,18.1
2016-06-03T01:24:16.004Z,18.1
2016-06-03T01:24:26.004Z,18.1
2016-06-03T01:24:35.988Z,18.1
2016-06-03T01:24:45.975Z,18.1
2016-06-03T01:24:56.491Z,18.1
2016-06-03T01:25:05.960Z,18.1
2016-06-03T01:25:16.054Z,18.1
2016-06-03T01:25:25.772Z,18.1
2016-06-03T01:25:35.897Z,18.1
2016-06-03T01:25:46.244Z,18.1
2016-06-03T01:25:55.900Z,18.1
2016-06-03T01:26:05.900Z,18.1
2016-06-03T01:26:15.713Z,18
2016-06-03T01:26:25.713Z,18.1
2016-06-03T01:26:35.853Z,18
2016-06-03T01:26:45.840Z,18
2016-06-03T01:26:55.824Z,18
2016-06-03T01:27:05.809Z,18.1
2016-06-03T01:27:15.809Z,18
2016-06-03T01:27:25.793Z,18
2016-06-03T01:27:35.793Z,18
2016-06-03T01:27:45.765Z,18
2016-06-03T01:27:55.749Z,18
2016-06-03T01:28:05.749Z,18
2016-06-03T01:28:15.733Z,18
2016-06-03T01:28:25.733Z,18.1
2016-06-03T01:28:35.702Z,18
2016-06-03T01:28:45.704Z,18
2016-06-03T01:28:55.689Z,18
2016-06-03T01:29:05.673Z,18.1
2016-06-03T01:29:15.657Z,18
2016-06-03T01:29:25.657Z,18
2016-06-03T01:29:35.642Z,18.1
2016-06-03T01:29:45.629Z,18
2016-06-03T01:29:55.613Z,18
2016-06-03T01:30:05.613Z,18
2016-06-03T01:30:15.598Z,18
2016-06-03T01:30:25.582Z,18.1
2016-06-03T01:30:35.567Z,18
2016-06-03T01:30:45.551Z,18
2016-06-03T01:30:55.554Z,18.1
2016-06-03T01:31:05.538Z,17.9
2016-06-03T01:31:15.523Z,18
2016-06-03T01:31:25.507Z,18.1
2016-06-03T01:31:35.491Z,18
2016-06-03T01:31:45.491Z,18
2016-06-03T01:31:55.479Z,18
2016-06-03T01:32:05.463Z,18
2016-06-03T01:32:15.463Z,18
2016-06-03T01:32:25.448Z,18
2016-06-03T01:32:35.291Z,18
2016-06-03T01:32:45.416Z,18
2016-06-03T01:32:55.403Z,18
2016-06-03T01:33:05.387Z,18
2016-06-03T01:33:15.387Z,18
2016-06-03T01:33:25.371Z,18
2016-06-03T01:33:35.356Z,18
2016-06-03T01:33:45.356Z,18
2016-06-03T01:33:55.343Z,18
2016-06-03T01:34:05.328Z,18
2016-06-03T01:34:15.312Z,18
2016-06-03T01:34:25.312Z,18
2016-06-03T01:34:35.296Z,18
2016-06-03T01:34:45.281Z,18
2016-06-03T01:34:55.268Z,18
2016-06-03T01:35:05.252Z,18
2016-06-03T01:35:15.252Z,18
2016-06-03T01:35:25.237Z,18
2016-06-03T01:35:35.221Z,18
2016-06-03T01:35:45.206Z,18
2016-06-03T01:35:55.192Z,18
2016-06-03T01:36:05.192Z,18.1
2016-06-03T01:36:15.176Z,18
2016-06-03T01:36:25.161Z,18.1
2016-06-03T01:36:35.145Z,18
2016-06-03T01:36:45.145Z,18
2016-06-03T01:36:55.132Z,18
2016-06-03T01:37:05.117Z,18
2016-06-03T01:37:15.101Z,17.9
2016-06-03T01:37:25.086Z,18
2016-06-03T01:37:35.086Z,18
2016-06-03T01:37:45.070Z,18
2016-06-03T01:37:55.057Z,17.9
2016-06-03T01:38:05.057Z,18
2016-06-03T01:38:15.042Z,17.9
2016-06-03T01:38:25.026Z,17.9
2016-06-03T01:38:35.010Z,18
2016-06-03T01:38:45.010Z,18
2016-06-03T01:38:54.997Z,17.9
2016-06-03T01:39:04.981Z,17.9
2016-06-03T01:39:14.966Z,17.9
2016-06-03T01:39:24.966Z,17.9
2016-06-03T01:39:35.325Z,17.9
2016-06-03T01:39:45.169Z,18
2016-06-03T01:39:56.454Z,17.9
2016-06-03T01:40:04.907Z,17.9
2016-06-03T01:40:15.188Z,17.9
2016-06-03T01:40:25.329Z,17.9
2016-06-03T01:40:35.298Z,17.9
2016-06-03T01:40:45.360Z,17.8
2016-06-03T01:40:54.847Z,17.9
2016-06-03T01:41:04.847Z,17.9
2016-06-03T01:41:14.831Z,17.8
2016-06-03T01:41:24.815Z,17.8
2016-06-03T01:41:34.800Z,17.8
2016-06-03T01:41:44.800Z,17.8
2016-06-03T01:41:54.786Z,17.8
2016-06-03T01:42:04.770Z,17.8
2016-06-03T01:42:14.755Z,17.9
2016-06-03T01:42:24.755Z,17.8
2016-06-03T01:42:34.739Z,17.8
2016-06-03T01:42:44.724Z,17.8
2016-06-03T01:42:54.711Z,17.8
2016-06-03T01:43:04.711Z,17.8
2016-06-03T01:43:14.695Z,17.9
2016-06-03T01:43:24.680Z,17.8
2016-06-03T01:43:34.664Z,17.8
2016-06-03T01:43:44.648Z,17.8
2016-06-03T01:43:54.651Z,17.8
2016-06-03T01:44:04.636Z,17.8
2016-06-03T01:44:14.620Z,17.8
2016-06-03T01:44:24.605Z,17.9
2016-06-03T01:44:34.589Z,17.8
2016-06-03T01:44:44.589Z,18
2016-06-03T01:44:54.576Z,17.9
2016-06-03T01:45:04.561Z,17.9
2016-06-03T01:45:14.561Z,17.8
2016-06-03T01:45:24.545Z,17.9
2016-06-03T01:45:34.529Z,17.9
2016-06-03T01:45:44.529Z,17.8
2016-06-03T01:45:54.500Z,17.8
2016-06-03T01:46:04.516Z,17.8
2016-06-03T01:46:14.485Z,17.9
2016-06-03T01:46:24.469Z,17.9
2016-06-03T01:46:34.453Z,17.9
2016-06-03T01:46:44.438Z,17.9
2016-06-03T01:46:54.441Z,17.8
2016-06-03T01:47:04.425Z,17.8
2016-06-03T01:47:14.409Z,17.9
2016-06-03T01:47:24.409Z,18
2016-06-03T01:47:34.394Z,17.9
2016-06-03T01:47:44.378Z,17.8
2016-06-03T01:47:54.366Z,17.8
2016-06-03T01:48:04.350Z,17.8
2016-06-03T01:48:14.350Z,17.8
2016-06-03T01:48:24.334Z,17.9
2016-06-03T01:48:34.319Z,17.8
2016-06-03T01:48:44.303Z,17.8
2016-06-03T01:48:54.305Z,17.8
2016-06-03T01:49:04.289Z,17.8
2016-06-03T01:49:14.274Z,17.8
2016-06-03T01:49:24.258Z,17.8
2016-06-03T01:49:34.243Z,17.8
2016-06-03T01:49:44.243Z,17.8
2016-06-03T01:49:54.230Z,17.8
2016-06-03T01:50:04.230Z,17.8
2016-06-03T01:50:14.214Z,17.8
2016-06-03T01:50:24.183Z,17.8
2016-06-03T01:50:34.183Z,17.8
2016-06-03T01:50:44.167Z,17.8
2016-06-03T01:50:54.155Z,17.9
2016-06-03T01:51:04.155Z,17.8
2016-06-03T01:51:14.139Z,17.8
2016-06-03T01:51:24.124Z,17.8
2016-06-03T01:51:34.108Z,17.8
2016-06-03T01:51:44.092Z,17.8
2016-06-03T01:51:54.095Z,17.8
2016-06-03T01:52:04.080Z,17.8
2016-06-03T01:52:14.064Z,17.8
2016-06-03T01:52:24.048Z,17.7
2016-06-03T01:52:34.033Z,17.7
2016-06-03T01:52:44.048Z,17.7
2016-06-03T01:52:54.020Z,17.7
2016-06-03T01:53:04.005Z,17.7
2016-06-03T01:53:14.005Z,17.8
2016-06-03T01:53:23.989Z,17.8
2016-06-03T01:53:33.973Z,17.7
2016-06-03T01:53:43.973Z,17.7
2016-06-03T01:53:53.959Z,17.8
2016-06-03T01:54:03.943Z,17.7
2016-06-03T01:54:13.927Z,17.7
2016-06-03T01:54:23.927Z,17.8
2016-06-03T01:54:33.896Z,17.9
2016-06-03T01:54:43.896Z,17.8
2016-06-03T01:54:53.727Z,17.8
2016-06-03T01:55:03.962Z,17.8
2016-06-03T01:55:13.868Z,17.8
2016-06-03T01:55:23.868Z,17.8
2016-06-03T01:55:33.915Z,17.8
2016-06-03T01:55:44.618Z,17.9
2016-06-03T01:55:53.808Z,17.8
2016-06-03T01:56:03.793Z,17.8
2016-06-03T01:56:13.793Z,17.8
2016-06-03T01:56:23.777Z,17.8
2016-06-03T01:56:33.762Z,17.8
2016-06-03T01:56:43.762Z,17.7
2016-06-03T01:56:53.733Z,17.8
2016-06-03T01:57:03.733Z,17.7
2016-06-03T01:57:13.718Z,17.8
2016-06-03T01:57:23.702Z,17.8
2016-06-03T01:57:33.686Z,17.8
2016-06-03T01:57:43.671Z,17.8
2016-06-03T01:57:53.673Z,17.7
2016-06-03T01:58:03.657Z,17.7
2016-06-03T01:58:13.642Z,17.8
2016-06-03T01:58:23.626Z,17.7
2016-06-03T01:58:33.626Z,17.8
2016-06-03T01:58:43.610Z,17.7
2016-06-03T01:58:53.598Z,17.8
2016-06-03T01:59:03.598Z,17.8
2016-06-03T01:59:13.582Z,17.7
2016-06-03T01:59:23.566Z,17.7
2016-06-03T01:59:33.551Z,17.8
2016-06-03T01:59:43.535Z,17.8
2016-06-03T01:59:53.382Z,17.7
2016-06-03T02:00:03.523Z,17.8
2016-06-03T02:00:13.507Z,17.7
2016-06-03T02:00:23.491Z,17.7
2016-06-03T02:00:33.491Z,17.8
2016-06-03T02:00:43.476Z,17.8
2016-06-03T02:00:53.463Z,17.7
2016-06-03T02:01:03.463Z,17.7
2016-06-03T02:01:13.432Z,17.7
2016-06-03T02:01:23.432Z,17.7
2016-06-03T02:01:33.432Z,17.7
2016-06-03T02:01:43.401Z,17.7
2016-06-03T02:01:53.387Z,17.6
2016-06-03T02:02:03.387Z,17.7
2016-06-03T02:02:13.371Z,17.7
2016-06-03T02:02:23.356Z,17.7
2016-06-03T02:02:33.340Z,17.7
2016-06-03T02:02:43.324Z,17.7
2016-06-03T02:02:53.328Z,17.7
2016-06-03T02:03:03.313Z,17.7
2016-06-03T02:03:13.297Z,17.7
2016-06-03T02:03:23.297Z,17.8
2016-06-03T02:03:33.282Z,17.7
2016-06-03T02:03:43.266Z,17.7
2016-06-03T02:03:53.252Z,17.7
2016-06-03T02:04:03.252Z,17.7
2016-06-03T02:04:13.221Z,17.8
2016-06-03T02:04:23.221Z,17.8
2016-06-03T02:04:33.205Z,17.8
2016-06-03T02:04:43.190Z,17.8
2016-06-03T02:04:53.176Z,17.7
2016-06-03T02:05:03.176Z,17.8
2016-06-03T02:05:13.161Z,17.8
2016-06-03T02:05:23.145Z,17.8
2016-06-03T02:05:32.989Z,17.8
2016-06-03T02:05:43.129Z,17.8
2016-06-03T02:05:53.117Z,17.8
2016-06-03T02:06:03.101Z,17.7
2016-06-03T02:06:13.085Z,17.8
2016-06-03T02:06:23.070Z,17.8
2016-06-03T02:06:33.070Z,17.8
2016-06-03T02:06:43.070Z,17.8
2016-06-03T02:06:53.042Z,17.8
2016-06-03T02:07:03.042Z,17.8
2016-06-03T02:07:13.026Z,17.8
2016-06-03T02:07:23.010Z,17.8
2016-06-03T02:07:32.995Z,17.8
2016-06-03T02:07:42.995Z,17.8
2016-06-03T02:07:52.981Z,17.7
2016-06-03T02:08:02.965Z,17.8
2016-06-03T02:08:12.950Z,17.8
2016-06-03T02:08:22.934Z,17.8
2016-06-03T02:08:32.934Z,17.8
2016-06-03T02:08:42.919Z,17.8
2016-06-03T02:08:52.907Z,17.8
2016-06-03T02:09:02.907Z,17.8
2016-06-03T02:09:12.891Z,17.8
2016-06-03T02:09:22.876Z,17.8
2016-06-03T02:09:32.860Z,17.8
2016-06-03T02:09:42.844Z,17.7
2016-06-03T02:09:53.253Z,17.8
2016-06-03T02:10:03.378Z,17.7
2016-06-03T02:10:12.815Z,17.9
2016-06-03T02:10:22.800Z,17.8
2016-06-03T02:10:33.221Z,17.8
2016-06-03T02:10:42.784Z,17.8
2016-06-03T02:10:52.615Z,17.8
2016-06-03T02:11:02.756Z,17.8
2016-06-03T02:11:12.756Z,17.8
2016-06-03T02:11:22.740Z,17.8
2016-06-03T02:11:32.740Z,17.8
2016-06-03T02:11:42.709Z,17.8
2016-06-03T02:11:52.695Z,17.8
2016-06-03T02:12:02.539Z,17.8
2016-06-03T02:12:12.680Z,17.8
2016-06-03T02:12:22.664Z,17.8
2016-06-03T02:12:32.648Z,17.8
2016-06-03T02:12:42.633Z,17.8
2016-06-03T02:12:52.620Z,17.8
2016-06-03T02:13:02.620Z,17.8
2016-06-03T02:13:12.604Z,17.8
2016-06-03T02:13:22.604Z,17.8
2016-06-03T02:13:32.589Z,17.8
2016-06-03T02:13:42.573Z,17.8
2016-06-03T02:13:52.576Z,17.8
2016-06-03T02:14:02.545Z,17.8
2016-06-03T02:14:12.545Z,17.8
2016-06-03T02:14:22.529Z,17.8
2016-06-03T02:14:32.514Z,17.8
2016-06-03T02:14:42.498Z,17.8
2016-06-03T02:14:52.485Z,17.8
2016-06-03T02:15:02.470Z,17.8
2016-06-03T02:15:12.470Z,17.8
2016-06-03T02:15:22.454Z,17.8
2016-06-03T02:15:32.439Z,17.8